createdAt,value
2023-05-05T00:01:02.457Z,12.80
2023-05-05T00:03:30.732Z,13.50
2023-05-05T00:05:58.924Z,12.70
2023-05-05T00:13:25.196Z,14.40
2023-05-05T00:15:55.213Z,12.90
2023-05-05T00:23:21.123Z,11.60
2023-05-05T00:28:17.701Z,13.00
2023-05-05T00:30:46.021Z,12.60
2023-05-05T00:33:15.427Z,12.70
2023-05-05T00:45:39.140Z,13.10
2023-05-05T00:48:08.554Z,12.80
2023-05-05T00:50:39.171Z,12.80
2023-05-05T00:53:07.929Z,12.80
2023-05-05T00:55:36.603Z,12.50
2023-05-05T00:58:05.399Z,12.80
2023-05-05T01:00:34.231Z,13.10
2023-05-05T01:05:38.234Z,12.70
2023-05-05T01:08:25.194Z,9.10
2023-05-05T01:10:59.862Z,12.60
2023-05-05T01:13:38.435Z,12.60
2023-05-05T01:16:13.171Z,12.70
2023-05-05T01:18:48.189Z,12.90
2023-05-05T01:21:21.204Z,12.00
2023-05-05T01:24:24.320Z,12.40
2023-05-05T01:27:01.752Z,12.70
2023-05-05T01:30:04.325Z,12.40
2023-05-05T01:32:39.748Z,12.50
2023-05-05T01:35:14.956Z,12.60
2023-05-05T01:37:50.487Z,13.20
2023-05-05T01:40:22.650Z,12.60
2023-05-05T01:42:51.954Z,11.80
2023-05-05T01:45:25.240Z,12.70
2023-05-05T01:47:56.422Z,12.60
2023-05-05T01:50:25.869Z,12.90
2023-05-05T01:55:26.248Z,12.20
2023-05-05T01:57:55.516Z,13.10
2023-05-05T02:00:25.152Z,12.70
2023-05-05T02:02:57.266Z,13.00
2023-05-05T02:05:27.599Z,12.90
2023-05-05T02:08:00.002Z,12.20
2023-05-05T02:10:29.658Z,12.00
2023-05-05T02:13:00.106Z,12.20
2023-05-05T02:15:28.998Z,11.90
2023-05-05T02:18:00.541Z,12.60
2023-05-05T02:20:31.570Z,12.40
2023-05-05T02:23:00.368Z,12.30
2023-05-05T02:25:36.487Z,12.40
2023-05-05T02:28:05.934Z,12.20
2023-05-05T02:30:37.380Z,12.50
2023-05-05T02:33:10.195Z,12.10
2023-05-05T02:35:42.120Z,14.50
2023-05-05T02:38:17.371Z,12.30
2023-05-05T02:40:47.822Z,12.50
2023-05-05T02:43:19.091Z,12.40
2023-05-05T02:48:16.933Z,12.50
2023-05-05T02:55:51.386Z,11.80
2023-05-05T02:58:25.464Z,12.10
2023-05-05T03:01:03.703Z,11.70
2023-05-05T03:03:40.037Z,11.90
2023-05-05T03:06:15.453Z,11.90
2023-05-05T03:08:45.787Z,11.70
2023-05-05T03:11:23.952Z,12.30
2023-05-05T03:13:55.959Z,12.10
2023-05-05T03:16:26.548Z,12.30
2023-05-05T03:18:58.698Z,12.10
2023-05-05T03:31:21.281Z,12.40
2023-05-05T03:33:49.374Z,11.80
2023-05-05T03:36:18.807Z,12.40
2023-05-05T03:41:15.233Z,12.30
2023-05-05T03:43:43.435Z,12.20
2023-05-05T03:48:41.761Z,12.80
2023-05-05T03:51:09.840Z,12.00
2023-05-05T03:53:39.445Z,13.10
2023-05-05T03:56:07.728Z,12.90
2023-05-05T03:58:35.862Z,13.00
2023-05-05T04:01:03.871Z,12.90
2023-05-05T04:03:32.112Z,12.70
2023-05-05T04:08:28.727Z,11.90
2023-05-05T04:10:58.444Z,12.60
2023-05-05T04:25:49.005Z,12.70
2023-05-05T04:28:19.638Z,12.30
2023-05-05T04:30:49.626Z,13.10
2023-05-05T04:43:11.044Z,13.60
2023-05-05T04:45:40.598Z,13.40
2023-05-05T04:53:05.389Z,13.30
2023-05-05T04:55:34.474Z,13.50
2023-05-05T04:58:02.887Z,13.70
2023-05-05T05:00:31.048Z,13.70
2023-05-05T05:03:00.762Z,14.70
2023-05-05T05:12:54.473Z,14.60
2023-05-05T05:20:21.417Z,15.40
2023-05-05T05:22:49.555Z,15.40
2023-05-05T05:35:21.660Z,15.20
2023-05-05T05:37:51.783Z,15.60
2023-05-05T05:40:20.234Z,16.40
2023-05-05T05:45:16.804Z,15.90
2023-05-05T05:50:13.391Z,16.00
2023-05-05T05:52:42.837Z,15.90
2023-05-05T05:55:11.099Z,16.10
2023-05-05T05:57:39.097Z,16.20
2023-05-05T06:00:08.660Z,16.30
2023-05-05T06:05:05.912Z,16.40
2023-05-05T06:10:18.419Z,17.60
2023-05-05T06:12:52.241Z,17.60
2023-05-05T06:15:20.325Z,17.40
2023-05-05T06:17:48.452Z,17.60
2023-05-05T06:20:16.632Z,17.60
2023-05-05T06:25:14.314Z,16.40
2023-05-05T06:30:11.518Z,17.00
2023-05-05T06:32:39.590Z,16.60
2023-05-05T06:35:08.995Z,17.30
2023-05-05T06:40:06.869Z,17.60
2023-05-05T06:42:36.678Z,17.50
2023-05-05T06:45:04.880Z,18.10
2023-05-05T06:47:33.106Z,17.60
2023-05-05T06:59:56.129Z,17.50
2023-05-05T07:07:24.338Z,17.60
2023-05-05T07:12:20.655Z,18.60
2023-05-05T07:17:18.872Z,18.00
2023-05-05T07:19:46.936Z,18.80
2023-05-05T07:22:15.019Z,18.50
2023-05-05T07:34:38.309Z,19.00
2023-05-05T07:39:34.663Z,18.10
2023-05-05T07:44:31.716Z,19.30
2023-05-05T07:46:59.864Z,19.10
2023-05-05T07:49:28.099Z,20.30
2023-05-05T07:51:57.553Z,20.20
2023-05-05T07:56:55.649Z,21.00
2023-05-05T08:01:54.259Z,22.30
2023-05-05T08:09:21.217Z,21.90
2023-05-05T08:11:49.226Z,21.60
2023-05-05T08:14:17.260Z,21.70
2023-05-05T08:19:27.633Z,21.80
2023-05-05T08:21:58.071Z,21.90
2023-05-05T08:24:28.958Z,21.40
2023-05-05T08:26:57.610Z,21.10
2023-05-05T08:29:25.929Z,21.50
2023-05-05T08:31:54.169Z,21.70
2023-05-05T08:34:22.210Z,21.60
2023-05-05T08:36:50.990Z,21.80
2023-05-05T08:39:19.028Z,21.30
2023-05-05T08:41:48.546Z,22.70
2023-05-05T08:44:16.776Z,21.80
2023-05-05T08:46:45.114Z,21.50
2023-05-05T08:49:16.991Z,21.80
2023-05-05T08:51:46.693Z,21.30
2023-05-05T08:54:20.069Z,21.70
2023-05-05T08:56:51.584Z,21.90
2023-05-05T08:59:24.316Z,22.00
2023-05-05T09:01:54.407Z,21.30
2023-05-05T09:04:22.694Z,21.60
2023-05-05T09:06:51.050Z,21.60
2023-05-05T09:09:19.709Z,21.50
2023-05-05T09:11:49.097Z,21.80
2023-05-05T09:14:17.145Z,21.80
2023-05-05T09:16:45.208Z,22.10
2023-05-05T09:19:13.273Z,21.70
2023-05-05T09:21:48.738Z,22.90
2023-05-05T09:24:16.825Z,22.00
2023-05-05T09:26:46.342Z,22.50
2023-05-05T09:29:21.022Z,22.00
2023-05-05T09:32:05.440Z,22.10
2023-05-05T09:34:35.906Z,22.30
2023-05-05T09:37:04.380Z,22.60
2023-05-05T09:39:32.481Z,22.40
2023-05-05T09:42:00.593Z,22.20
2023-05-05T09:44:37.102Z,21.90
2023-05-05T09:47:11.962Z,22.00
2023-05-05T09:49:46.712Z,22.20
2023-05-05T09:52:16.648Z,22.70
2023-05-05T09:54:45.325Z,22.10
2023-05-05T09:57:28.064Z,23.10
2023-05-05T09:59:59.076Z,22.40
2023-05-05T10:02:34.712Z,22.90
2023-05-05T10:05:07.203Z,22.20
2023-05-05T10:07:36.000Z,23.70
2023-05-05T10:10:05.660Z,22.50
2023-05-05T10:12:36.347Z,22.80
2023-05-05T10:15:07.488Z,22.50
2023-05-05T10:17:38.318Z,22.70
2023-05-05T10:20:11.252Z,22.40
2023-05-05T10:22:40.416Z,22.20
2023-05-05T10:25:12.587Z,22.30
2023-05-05T10:27:44.547Z,22.40
2023-05-05T10:30:21.638Z,22.10
2023-05-05T10:33:03.485Z,22.00
2023-05-05T10:35:42.551Z,22.80
2023-05-05T10:38:12.274Z,22.60
2023-05-05T10:40:40.901Z,23.40
2023-05-05T10:43:09.428Z,22.60
2023-05-05T10:45:39.404Z,22.20
2023-05-05T10:48:13.202Z,23.30
2023-05-05T10:50:50.147Z,22.90
2023-05-05T10:53:23.371Z,23.30
2023-05-05T10:55:58.320Z,23.10
2023-05-05T10:58:51.099Z,22.80
2023-05-05T11:01:33.933Z,23.30
2023-05-05T11:04:20.419Z,23.60
2023-05-05T11:07:31.585Z,23.70
2023-05-05T11:10:01.625Z,23.30
2023-05-05T11:12:30.145Z,23.50
2023-05-05T11:15:37.796Z,23.70
2023-05-05T11:18:08.441Z,23.60
2023-05-05T11:21:19.440Z,23.80
2023-05-05T11:23:52.072Z,23.60
2023-05-05T11:26:50.680Z,23.70
2023-05-05T11:29:18.990Z,24.00
2023-05-05T11:31:47.890Z,24.10
2023-05-05T11:34:27.983Z,23.80
2023-05-05T11:37:01.204Z,23.80
2023-05-05T11:39:42.180Z,23.90
2023-05-05T11:42:25.581Z,23.60
2023-05-05T11:44:54.348Z,23.40
2023-05-05T11:47:43.613Z,23.50
2023-05-05T11:50:23.540Z,23.40
2023-05-05T11:55:24.047Z,23.90
2023-05-05T11:57:52.350Z,23.40
2023-05-05T12:00:20.924Z,23.30
2023-05-05T12:02:57.979Z,23.40
2023-05-05T12:05:27.713Z,23.40
2023-05-05T12:07:59.564Z,23.00
2023-05-05T12:12:56.152Z,23.90
2023-05-05T12:15:32.037Z,23.40
2023-05-05T12:18:02.340Z,22.70
2023-05-05T12:20:33.577Z,23.30
2023-05-05T12:23:04.133Z,23.80
2023-05-05T12:25:39.319Z,23.90
2023-05-05T12:28:08.649Z,23.20
2023-05-05T12:30:37.291Z,23.90
2023-05-05T12:33:07.032Z,23.70
2023-05-05T12:35:37.031Z,23.60
2023-05-05T12:38:05.806Z,23.30
2023-05-05T12:40:47.756Z,23.00
2023-05-05T12:43:29.551Z,22.80
2023-05-05T12:46:02.435Z,22.40
2023-05-05T12:51:17.210Z,21.70
2023-05-05T12:53:46.464Z,21.80
2023-05-05T12:56:34.601Z,22.00
2023-05-05T12:59:03.797Z,22.00
2023-05-05T13:01:32.175Z,21.50
2023-05-05T13:04:08.131Z,21.40
2023-05-05T13:06:37.887Z,21.70
2023-05-05T13:09:07.419Z,21.40
2023-05-05T13:11:39.529Z,20.00
2023-05-05T13:14:08.868Z,19.90
2023-05-05T13:16:36.949Z,19.70
2023-05-05T13:19:05.128Z,20.20
2023-05-05T13:21:33.363Z,19.60
2023-05-05T13:24:18.948Z,19.50
2023-05-05T13:31:46.899Z,19.50
2023-05-05T13:39:13.576Z,18.50
2023-05-05T13:44:09.965Z,18.00
2023-05-05T13:49:06.483Z,17.50
2023-05-05T13:51:35.657Z,17.00
2023-05-05T13:56:34.307Z,16.00
2023-05-05T13:59:02.712Z,15.30
2023-05-05T14:01:31.299Z,15.10
2023-05-05T14:11:27.037Z,15.20
2023-05-05T14:13:56.661Z,15.20
2023-05-05T14:18:53.806Z,15.70
2023-05-05T14:21:21.872Z,15.90
2023-05-05T14:28:49.569Z,15.50
2023-05-05T14:31:19.859Z,16.00
2023-05-05T14:38:44.650Z,15.70
2023-05-05T14:48:39.498Z,15.80
2023-05-05T14:58:33.156Z,15.40
2023-05-05T15:01:01.404Z,15.60
2023-05-05T15:03:29.715Z,16.30
2023-05-05T15:05:59.229Z,15.90
2023-05-05T15:08:27.643Z,15.90
2023-05-05T15:23:19.017Z,16.40
2023-05-05T15:25:47.112Z,16.20
2023-05-05T15:33:11.960Z,16.90
2023-05-05T15:40:38.068Z,16.60
2023-05-05T15:45:35.170Z,15.60
2023-05-05T15:50:31.850Z,16.50
2023-05-05T15:57:58.654Z,16.60
2023-05-05T16:00:26.748Z,16.50
2023-05-05T16:02:54.960Z,16.00
2023-05-05T16:07:52.527Z,16.50
2023-05-05T16:10:20.998Z,16.50
2023-05-05T16:12:49.261Z,16.50
2023-05-05T16:15:18.780Z,16.70
2023-05-05T16:22:43.817Z,16.80
2023-05-05T16:30:10.237Z,15.70
2023-05-05T16:32:39.699Z,15.20
2023-05-05T16:35:09.283Z,14.60
2023-05-05T16:40:07.336Z,14.40
2023-05-05T16:47:32.036Z,14.10
2023-05-05T16:50:01.452Z,14.00
2023-05-05T16:59:57.072Z,13.90
2023-05-05T17:02:25.230Z,13.80
2023-05-05T17:07:23.413Z,13.40
2023-05-05T17:14:48.840Z,13.60
2023-05-05T17:22:14.012Z,14.10
2023-05-05T17:24:43.424Z,13.80
2023-05-05T17:32:10.033Z,14.20
2023-05-05T17:42:05.147Z,13.70
2023-05-05T17:59:26.090Z,13.70
2023-05-05T18:01:54.091Z,13.60
2023-05-05T18:04:22.459Z,13.70
2023-05-05T18:06:50.471Z,13.30
2023-05-05T18:09:20.664Z,13.30
2023-05-05T18:11:48.753Z,13.50
2023-05-05T18:16:52.273Z,13.30
2023-05-05T18:19:21.824Z,14.00
2023-05-05T18:26:50.508Z,13.50
2023-05-05T18:29:18.940Z,13.10
2023-05-05T18:34:18.417Z,13.70
2023-05-05T18:36:47.260Z,13.60
2023-05-05T18:51:39.092Z,13.80
2023-05-05T18:56:35.969Z,13.10
2023-05-05T19:04:01.419Z,14.00
2023-05-05T19:08:59.245Z,12.90
2023-05-05T19:11:27.341Z,13.20
2023-05-05T19:16:24.534Z,13.10
2023-05-05T19:26:21.856Z,12.80
2023-05-05T19:43:46.479Z,12.00
2023-05-05T19:51:11.905Z,11.80
2023-05-05T19:56:11.624Z,12.40
2023-05-05T19:58:57.560Z,12.70
2023-05-05T20:01:26.200Z,12.40
2023-05-05T20:03:55.680Z,12.40
2023-05-05T20:06:24.340Z,12.30
2023-05-05T20:11:23.271Z,12.80
2023-05-05T20:13:51.944Z,12.80
2023-05-05T20:16:21.640Z,12.70
2023-05-05T20:21:18.721Z,12.90
2023-05-05T20:23:47.181Z,12.00
2023-05-05T20:31:15.540Z,12.30
2023-05-05T20:33:44.986Z,12.70
2023-05-05T20:36:13.030Z,12.30
2023-05-05T20:46:06.175Z,12.70
2023-05-05T20:51:06.005Z,12.70
2023-05-05T20:53:34.381Z,12.60
2023-05-05T20:58:31.047Z,13.10
2023-05-05T21:05:55.822Z,12.30
2023-05-05T21:08:25.196Z,12.20
2023-05-05T21:13:21.686Z,11.90
2023-05-05T21:23:16.195Z,12.50
2023-05-05T21:25:45.606Z,11.90
2023-05-05T21:38:07.181Z,11.90
2023-05-05T21:40:35.296Z,11.60
2023-05-05T21:43:04.801Z,11.80
2023-05-05T21:45:32.935Z,11.80
2023-05-05T21:55:26.861Z,11.70
2023-05-05T22:00:24.866Z,11.30
2023-05-05T22:15:19.199Z,11.20
2023-05-05T22:17:48.757Z,11.60
2023-05-05T22:30:12.004Z,11.10
2023-05-05T22:32:43.344Z,11.50
2023-05-05T22:35:13.160Z,11.40
2023-05-05T22:40:10.819Z,11.40
2023-05-05T22:42:39.084Z,11.00
2023-05-05T22:45:08.565Z,11.20
2023-05-05T22:52:35.031Z,11.30
2023-05-05T22:55:03.254Z,12.10
2023-05-05T22:57:31.256Z,11.70
2023-05-05T23:09:54.580Z,11.20
2023-05-05T23:19:48.581Z,11.30
2023-05-05T23:22:16.665Z,11.00
2023-05-05T23:27:14.760Z,11.30
2023-05-05T23:37:07.889Z,11.70
2023-05-05T23:44:34.033Z,11.20
2023-05-05T23:56:55.458Z,12.30
